Main page
METAR-TAF:

METAR-TAF

Airports :

Leknes Airport

Leknes, Norway

latitude: 68-09N, longitude: 013-37E, elevation: 2 m

Current weather observation

The report was made 44 minutes ago, at 17:50 UTC
Wind 10 kt from the Northwest
Temperature 13°C
Humidity 94%
Pressure 1014 hPa
Visibility 10 km or more
Few clouds at a height of 700 ft
Scattered clouds at a height of 1000 ft
Broken clouds at a height of 1500 ft
showers in vicinity,

METAR: ENLK 231750Z 31010KT 9999 VCSH FEW007 SCT010 BKN015 13/12 Q1014

Time: 20:34 (18:34 UTC)


TAF: missing

Weather observations and forecasts of more than 4000 airports (METAR and TAF reports).

The available stations are represented by yellow and red dots on the map.

Hover mouse over dot to see the name of the station.

Then click to see weather observations and forecasts.

To change the map : click on the green buttons with a black cross to zoom in, on the green button with a dash to zoom out, or on the green arrows for adjacent maps.


METAR-TAF: